sensor_id;sensor_type;location;lat;lon;timestamp;temperature;humidity
19999;DHT22;10160;50.926;4.374;2022-10-31T00:01:16;15.40;99.90
19999;DHT22;10160;50.926;4.374;2022-10-31T00:03:42;15.40;99.90
19999;DHT22;10160;50.926;4.374;2022-10-31T00:06:08;15.40;99.90
19999;DHT22;10160;50.926;4.374;2022-10-31T00:08:34;15.50;99.90
19999;DHT22;10160;50.926;4.374;2022-10-31T00:10:59;15.70;99.90
19999;DHT22;10160;50.926;4.374;2022-10-31T00:13:25;15.70;99.90
19999;DHT22;10160;50.926;4.374;2022-10-31T00:15:51;15.80;99.90
19999;DHT22;10160;50.926;4.374;2022-10-31T00:18:16;15.90;99.90
19999;DHT22;10160;50.926;4.374;2022-10-31T00:20:42;16.00;99.90
19999;DHT22;10160;50.926;4.374;2022-10-31T00:23:09;16.10;99.90
19999;DHT22;10160;50.926;4.374;2022-10-31T00:25:38;16.20;99.90
19999;DHT22;10160;50.926;4.374;2022-10-31T00:28:08;16.20;99.90
19999;DHT22;10160;50.926;4.374;2022-10-31T00:30:35;16.20;99.90
19999;DHT22;10160;50.926;4.374;2022-10-31T00:33:03;16.10;99.90
19999;DHT22;10160;50.926;4.374;2022-10-31T00:35:30;16.10;99.90
19999;DHT22;10160;50.926;4.374;2022-10-31T00:37:55;16.10;99.90
19999;DHT22;10160;50.926;4.374;2022-10-31T00:40:21;15.90;99.90
19999;DHT22;10160;50.926;4.374;2022-10-31T00:42:47;15.60;99.90
19999;DHT22;10160;50.926;4.374;2022-10-31T00:45:12;15.50;99.90
19999;DHT22;10160;50.926;4.374;2022-10-31T00:47:38;15.50;99.90
19999;DHT22;10160;50.926;4.374;2022-10-31T00:50:07;15.60;99.90
19999;DHT22;10160;50.926;4.374;2022-10-31T00:52:33;15.50;99.90
19999;DHT22;10160;50.926;4.374;2022-10-31T00:54:58;15.40;99.90
19999;DHT22;10160;50.926;4.374;2022-10-31T00:57:24;15.40;99.90
19999;DHT22;10160;50.926;4.374;2022-10-31T00:59:49;15.50;99.90
19999;DHT22;10160;50.926;4.374;2022-10-31T01:02:15;15.50;99.90
19999;DHT22;10160;50.926;4.374;2022-10-31T01:04:41;15.50;99.90
19999;DHT22;10160;50.926;4.374;2022-10-31T01:07:06;15.60;99.90
19999;DHT22;10160;50.926;4.374;2022-10-31T01:09:33;15.30;99.90
19999;DHT22;10160;50.926;4.374;2022-10-31T01:11:59;15.20;99.90
19999;DHT22;10160;50.926;4.374;2022-10-31T01:14:24;15.10;99.90
19999;DHT22;10160;50.926;4.374;2022-10-31T01:16:50;15.10;99.90
19999;DHT22;10160;50.926;4.374;2022-10-31T01:19:16;15.20;99.90
19999;DHT22;10160;50.926;4.374;2022-10-31T01:21:41;15.00;99.90
19999;DHT22;10160;50.926;4.374;2022-10-31T01:24:08;15.00;99.90
19999;DHT22;10160;50.926;4.374;2022-10-31T01:26:33;14.90;99.90
19999;DHT22;10160;50.926;4.374;2022-10-31T01:29:07;14.80;99.90
19999;DHT22;10160;50.926;4.374;2022-10-31T01:31:36;14.80;99.90
19999;DHT22;10160;50.926;4.374;2022-10-31T01:34:02;14.70;99.90
19999;DHT22;10160;50.926;4.374;2022-10-31T01:36:31;14.70;99.90
19999;DHT22;10160;50.926;4.374;2022-10-31T01:39:02;14.70;99.90
19999;DHT22;10160;50.926;4.374;2022-10-31T01:41:30;14.70;99.90
19999;DHT22;10160;50.926;4.374;2022-10-31T01:46:45;14.60;99.90
19999;DHT22;10160;50.926;4.374;2022-10-31T01:52:09;14.80;99.90
19999;DHT22;10160;50.926;4.374;2022-10-31T01:54:48;14.80;99.90
19999;DHT22;10160;50.926;4.374;2022-10-31T01:57:17;14.70;99.90
19999;DHT22;10160;50.926;4.374;2022-10-31T01:59:47;14.80;99.90
19999;DHT22;10160;50.926;4.374;2022-10-31T02:02:15;14.80;99.90
19999;DHT22;10160;50.926;4.374;2022-10-31T02:04:41;14.80;99.90
19999;DHT22;10160;50.926;4.374;2022-10-31T02:07:18;14.70;99.90
19999;DHT22;10160;50.926;4.374;2022-10-31T02:09:47;14.60;99.90
19999;DHT22;10160;50.926;4.374;2022-10-31T02:12:15;14.50;99.90
19999;DHT22;10160;50.926;4.374;2022-10-31T02:14:42;14.50;99.90
19999;DHT22;10160;50.926;4.374;2022-10-31T02:17:08;14.70;99.90
19999;DHT22;10160;50.926;4.374;2022-10-31T02:22:40;14.60;99.90
19999;DHT22;10160;50.926;4.374;2022-10-31T02:28:00;14.60;99.90
19999;DHT22;10160;50.926;4.374;2022-10-31T02:30:38;14.40;99.90
19999;DHT22;10160;50.926;4.374;2022-10-31T02:36:03;14.40;99.90
19999;DHT22;10160;50.926;4.374;2022-10-31T02:38:52;14.40;99.90
19999;DHT22;10160;50.926;4.374;2022-10-31T02:41:40;14.30;99.90
19999;DHT22;10160;50.926;4.374;2022-10-31T02:44:34;14.40;99.90
19999;DHT22;10160;50.926;4.374;2022-10-31T02:47:06;14.60;99.90
19999;DHT22;10160;50.926;4.374;2022-10-31T02:49:43;14.70;99.90
19999;DHT22;10160;50.926;4.374;2022-10-31T02:52:21;14.80;99.90
19999;DHT22;10160;50.926;4.374;2022-10-31T02:54:47;14.90;99.90
19999;DHT22;10160;50.926;4.374;2022-10-31T02:57:14;14.80;99.90
19999;DHT22;10160;50.926;4.374;2022-10-31T02:59:45;14.70;99.90
19999;DHT22;10160;50.926;4.374;2022-10-31T03:02:43;14.80;99.90
19999;DHT22;10160;50.926;4.374;2022-10-31T03:10:53;14.60;99.90
19999;DHT22;10160;50.926;4.374;2022-10-31T03:16:14;14.60;99.90
19999;DHT22;10160;50.926;4.374;2022-10-31T03:18:57;14.50;99.90
19999;DHT22;10160;50.926;4.374;2022-10-31T03:21:39;14.40;99.90
19999;DHT22;10160;50.926;4.374;2022-10-31T03:24:06;14.30;99.90
19999;DHT22;10160;50.926;4.374;2022-10-31T03:26:35;14.40;99.90
19999;DHT22;10160;50.926;4.374;2022-10-31T03:29:05;14.50;99.90
19999;DHT22;10160;50.926;4.374;2022-10-31T03:31:35;14.50;99.90
19999;DHT22;10160;50.926;4.374;2022-10-31T03:34:03;14.50;99.90
19999;DHT22;10160;50.926;4.374;2022-10-31T03:36:34;14.60;99.90
19999;DHT22;10160;50.926;4.374;2022-10-31T03:39:02;14.60;99.90
19999;DHT22;10160;50.926;4.374;2022-10-31T03:41:35;14.60;99.90
19999;DHT22;10160;50.926;4.374;2022-10-31T03:44:06;14.50;99.90
19999;DHT22;10160;50.926;4.374;2022-10-31T03:46:34;14.50;99.90
19999;DHT22;10160;50.926;4.374;2022-10-31T03:48:59;14.50;99.90
19999;DHT22;10160;50.926;4.374;2022-10-31T03:51:42;14.50;99.90
19999;DHT22;10160;50.926;4.374;2022-10-31T03:54:51;14.20;99.90
19999;DHT22;10160;50.926;4.374;2022-10-31T03:59:44;14.10;99.90
19999;DHT22;10160;50.926;4.374;2022-10-31T04:02:14;14.20;99.90
19999;DHT22;10160;50.926;4.374;2022-10-31T04:04:41;14.20;99.90
19999;DHT22;10160;50.926;4.374;2022-10-31T04:07:10;14.20;99.90
19999;DHT22;10160;50.926;4.374;2022-10-31T04:09:37;14.10;99.90
19999;DHT22;10160;50.926;4.374;2022-10-31T04:12:06;14.10;99.90
19999;DHT22;10160;50.926;4.374;2022-10-31T04:14:36;14.00;99.90
19999;DHT22;10160;50.926;4.374;2022-10-31T04:17:05;13.80;99.90
19999;DHT22;10160;50.926;4.374;2022-10-31T04:19:33;13.90;99.90
19999;DHT22;10160;50.926;4.374;2022-10-31T04:21:59;14.00;99.90
19999;DHT22;10160;50.926;4.374;2022-10-31T04:24:25;13.80;99.90
19999;DHT22;10160;50.926;4.374;2022-10-31T04:26:50;13.70;99.90
19999;DHT22;10160;50.926;4.374;2022-10-31T04:29:16;13.50;99.90
19999;DHT22;10160;50.926;4.374;2022-10-31T04:31:42;13.60;99.90
19999;DHT22;10160;50.926;4.374;2022-10-31T04:34:07;13.60;99.90
19999;DHT22;10160;50.926;4.374;2022-10-31T04:36:33;13.70;99.90
19999;DHT22;10160;50.926;4.374;2022-10-31T04:38:59;13.80;99.90
19999;DHT22;10160;50.926;4.374;2022-10-31T04:41:24;13.70;99.90
19999;DHT22;10160;50.926;4.374;2022-10-31T04:43:50;13.60;99.90
19999;DHT22;10160;50.926;4.374;2022-10-31T04:46:16;13.50;99.90
19999;DHT22;10160;50.926;4.374;2022-10-31T04:48:41;13.50;99.90
19999;DHT22;10160;50.926;4.374;2022-10-31T04:51:07;13.50;99.90
19999;DHT22;10160;50.926;4.374;2022-10-31T04:53:33;13.60;99.90
19999;DHT22;10160;50.926;4.374;2022-10-31T04:55:58;13.60;99.90
19999;DHT22;10160;50.926;4.374;2022-10-31T04:58:26;13.80;99.90
19999;DHT22;10160;50.926;4.374;2022-10-31T05:00:55;13.90;99.90
19999;DHT22;10160;50.926;4.374;2022-10-31T05:03:21;14.00;99.90
19999;DHT22;10160;50.926;4.374;2022-10-31T05:05:47;14.00;99.90
19999;DHT22;10160;50.926;4.374;2022-10-31T05:08:13;13.90;99.90
19999;DHT22;10160;50.926;4.374;2022-10-31T05:10:39;14.00;99.90
19999;DHT22;10160;50.926;4.374;2022-10-31T05:13:05;13.90;99.90
19999;DHT22;10160;50.926;4.374;2022-10-31T05:15:31;13.70;99.90
19999;DHT22;10160;50.926;4.374;2022-10-31T05:17:57;13.80;99.90
19999;DHT22;10160;50.926;4.374;2022-10-31T05:20:27;13.90;99.90
19999;DHT22;10160;50.926;4.374;2022-10-31T05:22:55;13.90;99.90
19999;DHT22;10160;50.926;4.374;2022-10-31T05:25:23;13.80;99.90
19999;DHT22;10160;50.926;4.374;2022-10-31T05:27:50;13.90;99.90
19999;DHT22;10160;50.926;4.374;2022-10-31T05:30:22;13.90;99.90
19999;DHT22;10160;50.926;4.374;2022-10-31T05:32:50;13.80;99.90
19999;DHT22;10160;50.926;4.374;2022-10-31T05:35:18;13.80;99.90
19999;DHT22;10160;50.926;4.374;2022-10-31T05:37:44;13.80;99.90
19999;DHT22;10160;50.926;4.374;2022-10-31T05:40:12;13.80;99.90
19999;DHT22;10160;50.926;4.374;2022-10-31T05:42:42;13.80;99.90
19999;DHT22;10160;50.926;4.374;2022-10-31T05:45:09;13.90;99.90
19999;DHT22;10160;50.926;4.374;2022-10-31T05:47:35;13.90;99.90
19999;DHT22;10160;50.926;4.374;2022-10-31T05:50:01;13.80;99.90
19999;DHT22;10160;50.926;4.374;2022-10-31T05:52:26;13.70;99.90
19999;DHT22;10160;50.926;4.374;2022-10-31T05:54:52;13.60;99.90
19999;DHT22;10160;50.926;4.374;2022-10-31T05:57:18;13.60;99.90
19999;DHT22;10160;50.926;4.374;2022-10-31T05:59:43;13.70;99.90
19999;DHT22;10160;50.926;4.374;2022-10-31T06:02:09;13.60;99.90
19999;DHT22;10160;50.926;4.374;2022-10-31T06:04:34;13.60;99.90
19999;DHT22;10160;50.926;4.374;2022-10-31T06:07:00;13.60;99.90
19999;DHT22;10160;50.926;4.374;2022-10-31T06:09:26;13.70;99.90
19999;DHT22;10160;50.926;4.374;2022-10-31T06:11:51;13.70;99.90
19999;DHT22;10160;50.926;4.374;2022-10-31T06:14:17;13.70;99.90
19999;DHT22;10160;50.926;4.374;2022-10-31T06:16:42;13.90;99.90
19999;DHT22;10160;50.926;4.374;2022-10-31T06:19:08;13.90;99.90
19999;DHT22;10160;50.926;4.374;2022-10-31T06:21:34;13.60;99.90
19999;DHT22;10160;50.926;4.374;2022-10-31T06:23:59;13.70;99.90
19999;DHT22;10160;50.926;4.374;2022-10-31T06:26:25;13.60;99.90
19999;DHT22;10160;50.926;4.374;2022-10-31T06:28:50;13.70;99.90
19999;DHT22;10160;50.926;4.374;2022-10-31T06:31:16;13.70;99.90
19999;DHT22;10160;50.926;4.374;2022-10-31T06:33:42;13.70;99.90
19999;DHT22;10160;50.926;4.374;2022-10-31T06:36:08;13.70;99.90
19999;DHT22;10160;50.926;4.374;2022-10-31T06:38:34;13.80;99.90
19999;DHT22;10160;50.926;4.374;2022-10-31T06:41:06;13.90;99.90
19999;DHT22;10160;50.926;4.374;2022-10-31T06:43:32;14.00;99.90
19999;DHT22;10160;50.926;4.374;2022-10-31T06:46:01;14.10;99.90
19999;DHT22;10160;50.926;4.374;2022-10-31T06:48:27;14.30;99.90
19999;DHT22;10160;50.926;4.374;2022-10-31T06:50:52;14.40;99.90
19999;DHT22;10160;50.926;4.374;2022-10-31T06:53:18;14.40;99.90
19999;DHT22;10160;50.926;4.374;2022-10-31T06:55:44;14.30;99.90
19999;DHT22;10160;50.926;4.374;2022-10-31T06:58:10;14.20;99.90
19999;DHT22;10160;50.926;4.374;2022-10-31T07:00:36;14.30;99.90
19999;DHT22;10160;50.926;4.374;2022-10-31T07:03:09;14.30;99.90
19999;DHT22;10160;50.926;4.374;2022-10-31T07:05:35;14.30;99.90
19999;DHT22;10160;50.926;4.374;2022-10-31T07:08:03;14.40;99.90
19999;DHT22;10160;50.926;4.374;2022-10-31T07:10:31;14.40;99.90
19999;DHT22;10160;50.926;4.374;2022-10-31T07:12:59;14.60;99.90
19999;DHT22;10160;50.926;4.374;2022-10-31T07:15:27;14.50;99.90
19999;DHT22;10160;50.926;4.374;2022-10-31T07:17:53;14.70;99.90
19999;DHT22;10160;50.926;4.374;2022-10-31T07:20:19;14.80;99.90
19999;DHT22;10160;50.926;4.374;2022-10-31T07:22:45;15.00;99.90
19999;DHT22;10160;50.926;4.374;2022-10-31T07:25:11;15.10;99.90
19999;DHT22;10160;50.926;4.374;2022-10-31T07:27:40;15.20;99.90
19999;DHT22;10160;50.926;4.374;2022-10-31T07:30:08;15.30;99.90
19999;DHT22;10160;50.926;4.374;2022-10-31T07:32:52;15.40;99.90
19999;DHT22;10160;50.926;4.374;2022-10-31T07:35:23;15.20;99.90
19999;DHT22;10160;50.926;4.374;2022-10-31T07:37:49;15.20;99.90
19999;DHT22;10160;50.926;4.374;2022-10-31T07:40:16;15.00;99.90
19999;DHT22;10160;50.926;4.374;2022-10-31T07:42:45;14.90;99.90
19999;DHT22;10160;50.926;4.374;2022-10-31T07:45:13;14.90;99.90
19999;DHT22;10160;50.926;4.374;2022-10-31T07:50:06;15.00;99.90
19999;DHT22;10160;50.926;4.374;2022-10-31T07:52:32;15.10;99.90
19999;DHT22;10160;50.926;4.374;2022-10-31T07:54:57;15.10;99.90
19999;DHT22;10160;50.926;4.374;2022-10-31T07:57:23;15.20;99.90
19999;DHT22;10160;50.926;4.374;2022-10-31T07:59:48;15.30;99.90
19999;DHT22;10160;50.926;4.374;2022-10-31T08:02:15;15.40;99.90
19999;DHT22;10160;50.926;4.374;2022-10-31T08:04:41;15.50;99.90
19999;DHT22;10160;50.926;4.374;2022-10-31T08:07:06;15.60;99.90
19999;DHT22;10160;50.926;4.374;2022-10-31T08:09:32;15.70;99.90
19999;DHT22;10160;50.926;4.374;2022-10-31T08:11:58;15.80;99.90
19999;DHT22;10160;50.926;4.374;2022-10-31T08:14:23;15.90;99.90
19999;DHT22;10160;50.926;4.374;2022-10-31T08:16:49;15.60;99.90
19999;DHT22;10160;50.926;4.374;2022-10-31T08:19:14;15.60;99.90
19999;DHT22;10160;50.926;4.374;2022-10-31T08:21:40;15.80;99.90
19999;DHT22;10160;50.926;4.374;2022-10-31T08:24:06;15.90;99.90
19999;DHT22;10160;50.926;4.374;2022-10-31T08:26:31;15.70;99.90
19999;DHT22;10160;50.926;4.374;2022-10-31T08:28:57;15.40;99.90
19999;DHT22;10160;50.926;4.374;2022-10-31T08:31:23;15.50;99.90
19999;DHT22;10160;50.926;4.374;2022-10-31T08:33:52;15.70;99.90
19999;DHT22;10160;50.926;4.374;2022-10-31T08:36:18;15.90;99.90
19999;DHT22;10160;50.926;4.374;2022-10-31T08:38:43;15.80;99.90
19999;DHT22;10160;50.926;4.374;2022-10-31T08:41:09;15.90;99.90
19999;DHT22;10160;50.926;4.374;2022-10-31T08:43:35;15.90;99.90
19999;DHT22;10160;50.926;4.374;2022-10-31T08:46:00;15.80;99.90
19999;DHT22;10160;50.926;4.374;2022-10-31T08:48:27;15.90;99.90
19999;DHT22;10160;50.926;4.374;2022-10-31T08:50:56;15.80;99.90
19999;DHT22;10160;50.926;4.374;2022-10-31T08:53:23;16.00;99.90
19999;DHT22;10160;50.926;4.374;2022-10-31T08:55:49;16.10;99.90
19999;DHT22;10160;50.926;4.374;2022-10-31T08:58:19;16.10;99.90
19999;DHT22;10160;50.926;4.374;2022-10-31T09:00:47;16.20;99.90
19999;DHT22;10160;50.926;4.374;2022-10-31T09:03:19;16.40;99.90
19999;DHT22;10160;50.926;4.374;2022-10-31T09:05:45;15.80;99.90
19999;DHT22;10160;50.926;4.374;2022-10-31T09:08:12;15.50;99.90
19999;DHT22;10160;50.926;4.374;2022-10-31T09:10:37;15.20;99.90
19999;DHT22;10160;50.926;4.374;2022-10-31T09:13:13;15.30;99.90
19999;DHT22;10160;50.926;4.374;2022-10-31T09:15:41;15.70;99.90
19999;DHT22;10160;50.926;4.374;2022-10-31T09:18:08;15.90;99.90
19999;DHT22;10160;50.926;4.374;2022-10-31T09:20:35;16.20;99.90
19999;DHT22;10160;50.926;4.374;2022-10-31T09:23:04;16.30;99.90
19999;DHT22;10160;50.926;4.374;2022-10-31T09:25:30;16.30;99.90
19999;DHT22;10160;50.926;4.374;2022-10-31T09:27:57;16.30;99.90
19999;DHT22;10160;50.926;4.374;2022-10-31T09:30:23;16.40;99.90
19999;DHT22;10160;50.926;4.374;2022-10-31T09:32:55;16.40;99.90
19999;DHT22;10160;50.926;4.374;2022-10-31T09:35:21;16.50;99.90
19999;DHT22;10160;50.926;4.374;2022-10-31T09:37:46;16.10;99.90
19999;DHT22;10160;50.926;4.374;2022-10-31T09:40:12;15.90;99.90
19999;DHT22;10160;50.926;4.374;2022-10-31T09:42:59;16.10;99.90
19999;DHT22;10160;50.926;4.374;2022-10-31T09:45:53;16.20;99.90
19999;DHT22;10160;50.926;4.374;2022-10-31T09:51:12;16.30;99.90
19999;DHT22;10160;50.926;4.374;2022-10-31T09:54:09;16.30;99.90
19999;DHT22;10160;50.926;4.374;2022-10-31T09:56:32;16.30;99.90
19999;DHT22;10160;50.926;4.374;2022-10-31T09:59:00;16.50;99.90
19999;DHT22;10160;50.926;4.374;2022-10-31T10:06:48;17.20;99.90
19999;DHT22;10160;50.926;4.374;2022-10-31T10:09:14;17.10;99.90
19999;DHT22;10160;50.926;4.374;2022-10-31T10:11:55;17.20;99.90
19999;DHT22;10160;50.926;4.374;2022-10-31T10:17:32;17.10;99.90
19999;DHT22;10160;50.926;4.374;2022-10-31T10:23:47;17.50;99.90
19999;DHT22;10160;50.926;4.374;2022-10-31T10:28:43;18.00;99.90
19999;DHT22;10160;50.926;4.374;2022-10-31T10:31:23;18.10;99.90
19999;DHT22;10160;50.926;4.374;2022-10-31T10:34:08;18.10;99.90
19999;DHT22;10160;50.926;4.374;2022-10-31T10:36:43;18.20;99.90
19999;DHT22;10160;50.926;4.374;2022-10-31T10:41:36;18.20;99.90
19999;DHT22;10160;50.926;4.374;2022-10-31T10:44:08;17.90;99.90
19999;DHT22;10160;50.926;4.374;2022-10-31T10:46:56;17.90;99.90
19999;DHT22;10160;50.926;4.374;2022-10-31T10:49:52;17.60;99.90
19999;DHT22;10160;50.926;4.374;2022-10-31T10:57:59;17.60;99.90
19999;DHT22;10160;50.926;4.374;2022-10-31T11:00:34;17.60;99.90
19999;DHT22;10160;50.926;4.374;2022-10-31T11:03:00;17.30;99.90
19999;DHT22;10160;50.926;4.374;2022-10-31T11:05:35;17.10;99.90
19999;DHT22;10160;50.926;4.374;2022-10-31T11:08:03;17.10;99.90
19999;DHT22;10160;50.926;4.374;2022-10-31T11:10:29;17.00;99.90
19999;DHT22;10160;50.926;4.374;2022-10-31T11:13:25;16.80;99.90
19999;DHT22;10160;50.926;4.374;2022-10-31T11:16:02;17.30;99.90
19999;DHT22;10160;50.926;4.374;2022-10-31T11:18:37;17.60;99.90
19999;DHT22;10160;50.926;4.374;2022-10-31T11:21:05;17.70;99.90
19999;DHT22;10160;50.926;4.374;2022-10-31T11:23:31;17.40;99.90
19999;DHT22;10160;50.926;4.374;2022-10-31T11:26:03;17.60;99.90
19999;DHT22;10160;50.926;4.374;2022-10-31T11:28:31;17.90;99.90
19999;DHT22;10160;50.926;4.374;2022-10-31T11:31:07;18.10;99.90
19999;DHT22;10160;50.926;4.374;2022-10-31T11:36:34;18.40;99.90
19999;DHT22;10160;50.926;4.374;2022-10-31T11:39:02;18.30;99.90
19999;DHT22;10160;50.926;4.374;2022-10-31T11:41:31;18.70;99.90
19999;DHT22;10160;50.926;4.374;2022-10-31T11:44:27;18.70;99.90
19999;DHT22;10160;50.926;4.374;2022-10-31T11:47:00;18.80;99.90
19999;DHT22;10160;50.926;4.374;2022-10-31T11:49:38;18.40;99.90
19999;DHT22;10160;50.926;4.374;2022-10-31T11:52:07;18.60;99.90
19999;DHT22;10160;50.926;4.374;2022-10-31T11:57:49;18.80;99.90
19999;DHT22;10160;50.926;4.374;2022-10-31T12:00:33;19.00;99.90
19999;DHT22;10160;50.926;4.374;2022-10-31T12:05:58;19.00;99.90
19999;DHT22;10160;50.926;4.374;2022-10-31T12:08:30;18.70;99.90
19999;DHT22;10160;50.926;4.374;2022-10-31T12:13:38;19.60;99.90
19999;DHT22;10160;50.926;4.374;2022-10-31T12:16:26;20.00;99.90
19999;DHT22;10160;50.926;4.374;2022-10-31T12:19:05;20.40;99.90
19999;DHT22;10160;50.926;4.374;2022-10-31T12:24:34;23.40;99.90
19999;DHT22;10160;50.926;4.374;2022-10-31T12:32:51;25.10;99.90
19999;DHT22;10160;50.926;4.374;2022-10-31T12:35:39;25.70;99.90
19999;DHT22;10160;50.926;4.374;2022-10-31T12:43:38;26.50;99.90
19999;DHT22;10160;50.926;4.374;2022-10-31T12:49:09;24.70;99.90
19999;DHT22;10160;50.926;4.374;2022-10-31T12:59:51;28.10;99.90
19999;DHT22;10160;50.926;4.374;2022-10-31T13:02:22;25.70;99.90
19999;DHT22;10160;50.926;4.374;2022-10-31T13:05:05;26.40;99.90
19999;DHT22;10160;50.926;4.374;2022-10-31T13:07:41;25.70;99.90
19999;DHT22;10160;50.926;4.374;2022-10-31T13:13:24;27.60;99.90
19999;DHT22;10160;50.926;4.374;2022-10-31T13:15:57;25.60;99.90
19999;DHT22;10160;50.926;4.374;2022-10-31T13:21:16;26.50;99.90
19999;DHT22;10160;50.926;4.374;2022-10-31T13:23:44;25.60;99.90
19999;DHT22;10160;50.926;4.374;2022-10-31T13:26:38;26.20;99.90
19999;DHT22;10160;50.926;4.374;2022-10-31T13:31:43;24.70;99.90
19999;DHT22;10160;50.926;4.374;2022-10-31T13:34:26;25.00;99.90
19999;DHT22;10160;50.926;4.374;2022-10-31T13:45:21;24.40;99.90
19999;DHT22;10160;50.926;4.374;2022-10-31T13:48:16;23.50;99.90
19999;DHT22;10160;50.926;4.374;2022-10-31T13:50:54;22.90;99.90
19999;DHT22;10160;50.926;4.374;2022-10-31T13:53:22;22.90;99.90
19999;DHT22;10160;50.926;4.374;2022-10-31T13:56:14;23.10;99.90
19999;DHT22;10160;50.926;4.374;2022-10-31T13:58:54;24.10;99.90
19999;DHT22;10160;50.926;4.374;2022-10-31T14:01:22;25.10;99.90
19999;DHT22;10160;50.926;4.374;2022-10-31T14:04:16;24.50;99.90
19999;DHT22;10160;50.926;4.374;2022-10-31T14:09:35;23.50;99.90
19999;DHT22;10160;50.926;4.374;2022-10-31T14:12:08;22.90;99.90
19999;DHT22;10160;50.926;4.374;2022-10-31T14:14:43;23.00;99.90
19999;DHT22;10160;50.926;4.374;2022-10-31T14:17:20;23.20;99.90
19999;DHT22;10160;50.926;4.374;2022-10-31T14:20:00;23.60;99.90
19999;DHT22;10160;50.926;4.374;2022-10-31T14:22:31;23.10;99.90
19999;DHT22;10160;50.926;4.374;2022-10-31T14:24:57;22.90;99.90
19999;DHT22;10160;50.926;4.374;2022-10-31T14:29:51;23.90;99.90
19999;DHT22;10160;50.926;4.374;2022-10-31T14:32:24;24.40;99.90
19999;DHT22;10160;50.926;4.374;2022-10-31T14:34:55;23.60;99.90
19999;DHT22;10160;50.926;4.374;2022-10-31T14:37:27;23.30;99.90
19999;DHT22;10160;50.926;4.374;2022-10-31T14:43:22;22.30;99.90
19999;DHT22;10160;50.926;4.374;2022-10-31T14:51:40;21.80;99.90
19999;DHT22;10160;50.926;4.374;2022-10-31T14:54:14;21.50;99.90
19999;DHT22;10160;50.926;4.374;2022-10-31T14:56:50;21.10;99.90
19999;DHT22;10160;50.926;4.374;2022-10-31T14:59:21;20.50;99.90
19999;DHT22;10160;50.926;4.374;2022-10-31T15:02:28;20.00;99.90
19999;DHT22;10160;50.926;4.374;2022-10-31T15:04:47;20.60;99.90
19999;DHT22;10160;50.926;4.374;2022-10-31T15:09:42;20.90;99.90
19999;DHT22;10160;50.926;4.374;2022-10-31T15:12:29;21.00;99.90
19999;DHT22;10160;50.926;4.374;2022-10-31T15:14:55;21.20;99.90
19999;DHT22;10160;50.926;4.374;2022-10-31T15:17:22;20.50;99.90
19999;DHT22;10160;50.926;4.374;2022-10-31T15:19:49;19.90;99.90
19999;DHT22;10160;50.926;4.374;2022-10-31T15:22:17;19.30;99.90
19999;DHT22;10160;50.926;4.374;2022-10-31T15:24:44;19.20;99.90
19999;DHT22;10160;50.926;4.374;2022-10-31T15:27:16;19.00;99.90
19999;DHT22;10160;50.926;4.374;2022-10-31T15:29:56;19.10;99.90
19999;DHT22;10160;50.926;4.374;2022-10-31T15:32:28;19.10;99.90
19999;DHT22;10160;50.926;4.374;2022-10-31T15:34:55;19.10;99.90
19999;DHT22;10160;50.926;4.374;2022-10-31T15:37:23;19.30;99.90
19999;DHT22;10160;50.926;4.374;2022-10-31T15:39:50;19.20;99.90
19999;DHT22;10160;50.926;4.374;2022-10-31T15:42:27;19.00;99.90
19999;DHT22;10160;50.926;4.374;2022-10-31T15:45:22;19.20;99.90
19999;DHT22;10160;50.926;4.374;2022-10-31T15:47:55;19.30;99.90
19999;DHT22;10160;50.926;4.374;2022-10-31T15:50:32;19.50;99.90
19999;DHT22;10160;50.926;4.374;2022-10-31T15:52:59;19.40;99.90
19999;DHT22;10160;50.926;4.374;2022-10-31T15:55:27;18.90;99.90
19999;DHT22;10160;50.926;4.374;2022-10-31T15:58:00;18.70;99.90
19999;DHT22;10160;50.926;4.374;2022-10-31T16:05:55;18.40;99.90
19999;DHT22;10160;50.926;4.374;2022-10-31T16:08:45;18.40;99.90
19999;DHT22;10160;50.926;4.374;2022-10-31T16:14:28;18.60;99.90
19999;DHT22;10160;50.926;4.374;2022-10-31T16:16:29;18.10;99.90
19999;DHT22;10160;50.926;4.374;2022-10-31T16:18:56;17.90;99.90
19999;DHT22;10160;50.926;4.374;2022-10-31T16:21:33;17.60;99.90
19999;DHT22;10160;50.926;4.374;2022-10-31T16:24:29;17.50;99.90
19999;DHT22;10160;50.926;4.374;2022-10-31T16:27:15;17.30;99.90
19999;DHT22;10160;50.926;4.374;2022-10-31T16:29:44;17.50;99.90
19999;DHT22;10160;50.926;4.374;2022-10-31T16:37:44;18.10;99.90
19999;DHT22;10160;50.926;4.374;2022-10-31T16:40:11;18.20;99.90
19999;DHT22;10160;50.926;4.374;2022-10-31T16:42:38;18.20;99.90
19999;DHT22;10160;50.926;4.374;2022-10-31T16:45:12;18.10;99.90
19999;DHT22;10160;50.926;4.374;2022-10-31T16:47:38;18.10;99.90
19999;DHT22;10160;50.926;4.374;2022-10-31T16:50:10;18.00;99.90
19999;DHT22;10160;50.926;4.374;2022-10-31T16:52:37;17.90;99.90
19999;DHT22;10160;50.926;4.374;2022-10-31T16:55:03;17.90;99.90
19999;DHT22;10160;50.926;4.374;2022-10-31T16:57:29;17.80;99.90
19999;DHT22;10160;50.926;4.374;2022-10-31T16:59:56;17.80;99.90
19999;DHT22;10160;50.926;4.374;2022-10-31T17:02:22;17.90;99.90
19999;DHT22;10160;50.926;4.374;2022-10-31T17:04:48;17.90;99.90
19999;DHT22;10160;50.926;4.374;2022-10-31T17:07:14;18.10;99.90
19999;DHT22;10160;50.926;4.374;2022-10-31T17:09:39;18.00;99.90
19999;DHT22;10160;50.926;4.374;2022-10-31T17:12:09;17.90;99.90
19999;DHT22;10160;50.926;4.374;2022-10-31T17:14:38;17.80;99.90
19999;DHT22;10160;50.926;4.374;2022-10-31T17:17:03;17.80;99.90
19999;DHT22;10160;50.926;4.374;2022-10-31T17:19:29;17.80;99.90
19999;DHT22;10160;50.926;4.374;2022-10-31T17:21:55;17.80;99.90
19999;DHT22;10160;50.926;4.374;2022-10-31T17:24:20;17.70;99.90
19999;DHT22;10160;50.926;4.374;2022-10-31T17:26:46;17.60;99.90
19999;DHT22;10160;50.926;4.374;2022-10-31T17:29:12;17.60;99.90
19999;DHT22;10160;50.926;4.374;2022-10-31T17:31:37;17.60;99.90
19999;DHT22;10160;50.926;4.374;2022-10-31T17:34:04;17.60;99.90
19999;DHT22;10160;50.926;4.374;2022-10-31T17:36:32;17.60;99.90
19999;DHT22;10160;50.926;4.374;2022-10-31T17:38:58;17.60;99.90
19999;DHT22;10160;50.926;4.374;2022-10-31T17:41:24;17.50;99.90
19999;DHT22;10160;50.926;4.374;2022-10-31T17:43:57;17.70;99.90
19999;DHT22;10160;50.926;4.374;2022-10-31T17:46:23;17.70;99.90
19999;DHT22;10160;50.926;4.374;2022-10-31T17:48:49;17.80;99.90
19999;DHT22;10160;50.926;4.374;2022-10-31T17:51:15;17.80;99.90
19999;DHT22;10160;50.926;4.374;2022-10-31T17:53:40;17.90;99.90
19999;DHT22;10160;50.926;4.374;2022-10-31T17:56:07;17.70;99.90
19999;DHT22;10160;50.926;4.374;2022-10-31T17:58:34;17.70;99.90
19999;DHT22;10160;50.926;4.374;2022-10-31T18:01:06;17.70;99.90
19999;DHT22;10160;50.926;4.374;2022-10-31T18:03:32;17.70;99.90
19999;DHT22;10160;50.926;4.374;2022-10-31T18:05:58;17.70;99.90